Huvudsida
METAR-TAF:

METAR-TAF

Flygplatser :

Pekings internationella flygplats

Peking, Kina

latitud: 39-56N, longitud: 116-17E, höjd: 55 m

Aktuellt väderrapport

Denna rapport gjordes för 20 minuter sedan, klockan 15:00 UTC
Stilla vind
Temperatur 13°C
Fuktighet 94%
Tryck 1020 hPa
Sikt 10 km eller mer
Inga moln under 1 500 m eller inga cumulonimbus

METAR: ZBAA 261500Z 00000MPS CAVOK 13/12 Q1020 NOSIG

Tid: 23:20 (15:20 UTC)

Väderprognos

Denna rapport gjordes för 5 timmar och 50 minuter sedan, klockan 09:30 UTC
Prognos gäller från 26 kl. 12 UTC till 27 kl. 12 UTC
Vind 8 kt från syd
Sikt: 6000 m

TAF: ZBAA 260930Z 2612/2712 17004MPS 6000 NSC TX19/2706Z TN11/2622Z

Aktuella väderrapporter och prognoser från 4000 flygplatser (METAR- och TAF-rapporter).

De tillgängliga stationerna syns som gula och röda prickar på kartan.

För musen över prickarna för att se namnen på stationerna.

Klicka sedan för att få väderrapporter och prognoser.

För att ändra kartan: Klicka på de gröna knapparna med ett svart kors på för att zooma in; den gröna knappen med ett streck på för att zooma ut; eller på de gröna pilarna för angränsande kartor.


METAR-TAF: